Time;durP1;ratioP1;P1;durP2;ratioP2;P2;SDS_P1;SDS_P2;PMS_P1;PMS_P2;Temp;Humidity;BMP_temperature;BMP_pressure;BME280_temperature;BME280_humidity;BME280_pressure;Samples;Min_cycle;Max_cycle;Signal;HPM_P1;HPM_P2
2023/04/30 00:01:55;;;;;;;11.00;8.98;;;;;;;12.70;59.68;94615.81;5031165;28;20386;-72
2023/04/30 00:04:20;;;;;;;14.20;9.77;;;;;;;12.67;59.99;94617.00;5033868;28;20229;-72
2023/04/30 00:06:45;;;;;;;16.00;9.88;;;;;;;12.67;59.54;94614.34;5035813;28;20181;-72
2023/04/30 00:09:11;;;;;;;12.23;9.70;;;;;;;12.72;59.60;94619.94;5034953;28;20252;-73
2023/04/30 00:11:36;;;;;;;12.88;9.68;;;;;;;12.66;59.63;94617.16;5035087;28;20277;-72
2023/04/30 00:14:02;;;;;;;14.20;9.77;;;;;;;12.62;59.55;94618.50;5023892;28;20214;-73
2023/04/30 00:16:27;;;;;;;16.40;10.10;;;;;;;12.59;59.74;94614.41;5036987;28;20364;-74
2023/04/30 00:18:52;;;;;;;15.35;9.20;;;;;;;12.52;59.73;94618.72;5026691;28;20206;-73
2023/04/30 00:21:18;;;;;;;15.02;10.18;;;;;;;12.41;60.04;94616.47;5029153;28;20680;-74
2023/04/30 00:23:43;;;;;;;13.50;9.25;;;;;;;12.39;59.98;94618.47;5035368;28;20220;-73
2023/04/30 00:26:09;;;;;;;17.13;9.85;;;;;;;12.31;59.83;94614.84;5032975;28;20221;-73
2023/04/30 00:28:34;;;;;;;17.67;10.98;;;;;;;12.31;59.95;94614.84;5030688;28;20261;-72
2023/04/30 00:31:00;;;;;;;16.92;9.82;;;;;;;12.27;59.54;94613.56;5033828;28;20202;-72
2023/04/30 00:33:25;;;;;;;17.25;9.48;;;;;;;12.28;59.17;94619.66;5029518;28;20180;-73
2023/04/30 00:35:51;;;;;;;13.98;10.48;;;;;;;12.18;59.16;94617.22;5028935;28;20218;-72
2023/04/30 00:38:16;;;;;;;15.98;9.80;;;;;;;12.12;59.07;94618.72;5035241;28;20217;-72
2023/04/30 00:40:42;;;;;;;14.40;9.60;;;;;;;12.25;58.89;94623.47;5017336;28;20222;-72
2023/04/30 00:43:08;;;;;;;12.38;9.30;;;;;;;12.13;59.58;94609.00;5026261;28;20268;-73
2023/04/30 00:45:33;;;;;;;17.55;10.63;;;;;;;12.16;59.70;94621.03;5034215;28;20208;-73
2023/04/30 00:47:59;;;;;;;14.13;9.45;;;;;;;12.16;59.79;94619.19;5034641;28;20221;-72
2023/04/30 00:50:25;;;;;;;11.23;9.27;;;;;;;12.22;59.26;94615.09;5032857;28;20252;-73
2023/04/30 00:52:50;;;;;;;15.35;9.27;;;;;;;12.15;59.32;94612.31;5018490;28;20225;-72
2023/04/30 00:55:16;;;;;;;15.10;9.57;;;;;;;12.06;59.49;94616.78;5035374;28;20305;-72
2023/04/30 00:57:41;;;;;;;12.70;9.48;;;;;;;11.97;59.71;94614.34;5032729;28;20332;-73
2023/04/30 01:00:10;;;;;;;13.73;9.82;;;;;;;11.93;60.20;94619.13;5034241;28;20209;-73
2023/04/30 01:02:39;;;;;;;12.13;9.52;;;;;;;11.91;59.67;94616.66;5043722;28;20221;-73
2023/04/30 01:05:06;;;;;;;12.43;9.88;;;;;;;11.87;60.17;94614.56;5026466;28;20225;-73
2023/04/30 01:07:33;;;;;;;15.70;9.23;;;;;;;11.84;60.13;94609.56;5032783;28;20232;-72
2023/04/30 01:09:59;;;;;;;12.18;9.77;;;;;;;11.78;60.13;94607.63;5030751;28;20223;-73
2023/04/30 01:13:03;;;;;;;11.02;9.77;;;;;;;11.87;59.66;94618.00;5041675;28;20217;-73
2023/04/30 01:15:46;;;;;;;15.98;9.48;;;;;;;11.88;59.52;94616.19;5029234;28;20225;-72
2023/04/30 01:18:26;;;;;;;15.23;9.82;;;;;;;11.79;59.67;94610.09;5028431;28;20225;-72
2023/04/30 01:21:00;;;;;;;13.65;10.13;;;;;;;11.88;59.25;94611.75;5027423;28;20222;-73
2023/04/30 01:23:33;;;;;;;11.60;9.95;;;;;;;11.84;59.29;94615.69;5041798;28;20221;-72
2023/04/30 01:26:11;;;;;;;10.38;9.27;;;;;;;11.74;59.42;94620.31;5033682;28;20237;-70
2023/04/30 01:28:38;;;;;;;12.88;10.13;;;;;;;11.56;59.77;94612.63;5039584;28;20245;-72
2023/04/30 01:31:14;;;;;;;14.13;10.13;;;;;;;11.61;59.24;94620.03;5039217;28;20259;-73
2023/04/30 01:33:39;;;;;;;12.43;9.23;;;;;;;11.59;58.35;94611.47;5026121;28;20221;-72
2023/04/30 01:36:23;;;;;;;10.17;8.40;;;;;;;11.53;58.16;94601.59;5026506;28;20246;-72
2023/04/30 01:39:20;;;;;;;12.00;8.70;;;;;;;11.56;56.94;94615.25;5024098;28;20228;-72
2023/04/30 01:42:10;;;;;;;9.37;8.33;;;;;;;11.50;56.95;94607.22;5029273;28;20320;-73
2023/04/30 01:44:36;;;;;;;9.70;7.70;;;;;;;11.46;56.98;94618.03;5024201;28;20221;-71
2023/04/30 01:47:30;;;;;;;8.98;7.47;;;;;;;11.46;56.97;94615.41;5032524;28;20300;-72
2023/04/30 01:50:08;;;;;;;10.15;7.40;;;;;;;11.50;56.64;94613.28;5031684;28;20249;-71
2023/04/30 01:52:40;;;;;;;8.45;7.38;;;;;;;11.41;56.82;94611.63;5021560;28;20232;-72
2023/04/30 01:55:12;;;;;;;10.95;7.60;;;;;;;11.36;56.81;94612.16;5022547;28;20234;-72
2023/04/30 01:57:42;;;;;;;9.45;7.93;;;;;;;11.41;56.56;94617.75;5029679;28;20223;-74
2023/04/30 02:00:12;;;;;;;9.85;7.55;;;;;;;11.31;56.81;94617.09;5023489;28;20242;-72
2023/04/30 02:02:37;;;;;;;9.32;7.20;;;;;;;11.30;57.24;94609.34;5033437;28;20233;-72
2023/04/30 02:05:03;;;;;;;8.25;7.30;;;;;;;11.31;57.34;94611.84;5030631;28;20232;-71
2023/04/30 02:07:45;;;;;;;10.02;7.13;;;;;;;11.42;57.20;94619.38;5030216;28;20241;-71
2023/04/30 02:10:11;;;;;;;9.90;7.43;;;;;;;11.33;57.64;94615.09;5027826;28;20237;-71
2023/04/30 02:12:37;;;;;;;13.10;8.38;;;;;;;11.40;58.06;94613.47;5041884;28;20338;-71
2023/04/30 02:15:04;;;;;;;11.82;9.25;;;;;;;11.07;59.56;94607.41;5021998;28;20241;-71
2023/04/30 02:17:30;;;;;;;13.20;10.20;;;;;;;11.10;59.95;94606.25;5043813;28;20213;-71
2023/04/30 02:19:56;;;;;;;13.47;11.33;;;;;;;11.04;59.56;94607.75;5030642;28;20229;-71
2023/04/30 02:22:22;;;;;;;12.88;10.73;;;;;;;11.10;59.21;94604.44;5029517;28;20230;-68
2023/04/30 02:24:47;;;;;;;12.57;11.27;;;;;;;11.06;59.64;94611.00;5016295;28;20219;-68
2023/04/30 02:27:12;;;;;;;13.40;12.00;;;;;;;11.03;59.75;94599.00;5028330;28;20187;-70
2023/04/30 02:29:38;;;;;;;15.52;11.50;;;;;;;11.14;59.51;94602.28;5026603;28;20303;-70
2023/04/30 02:32:03;;;;;;;17.88;11.77;;;;;;;11.16;59.24;94602.97;5032748;28;20255;-70
2023/04/30 02:34:29;;;;;;;14.38;11.73;;;;;;;10.93;60.14;94600.16;5032989;28;20236;-70
2023/04/30 02:36:54;;;;;;;11.80;10.60;;;;;;;10.84;60.51;94598.53;5017636;28;20194;-70
2023/04/30 02:39:20;;;;;;;14.47;10.10;;;;;;;11.08;59.87;94613.50;5026350;28;20388;-70
2023/04/30 02:41:45;;;;;;;11.23;10.13;;;;;;;11.11;59.69;94607.88;5035080;28;20217;-70
2023/04/30 02:44:11;;;;;;;13.13;11.03;;;;;;;11.16;59.41;94605.59;5029153;28;20229;-70
2023/04/30 02:46:36;;;;;;;16.35;13.25;;;;;;;11.13;59.55;94612.00;5035392;28;20226;-70
2023/04/30 02:49:02;;;;;;;14.32;11.02;;;;;;;11.27;59.03;94607.88;5031549;28;20197;-70
2023/04/30 02:51:27;;;;;;;11.32;9.27;;;;;;;11.20;59.36;94612.16;5038678;28;20216;-70
2023/04/30 02:53:53;;;;;;;12.68;10.23;;;;;;;11.24;59.13;94614.28;5027140;28;20218;-70
2023/04/30 02:56:18;;;;;;;16.70;10.00;;;;;;;11.34;58.79;94619.41;5030414;28;20328;-71
2023/04/30 02:58:44;;;;;;;15.32;10.25;;;;;;;11.31;59.08;94618.91;5031834;28;20222;-70
2023/04/30 03:01:09;;;;;;;12.45;9.35;;;;;;;11.25;59.12;94626.47;5038310;28;20236;-70
2023/04/30 03:03:35;;;;;;;17.08;10.35;;;;;;;11.34;58.72;94624.66;5034531;28;20217;-69
2023/04/30 03:06:00;;;;;;;13.75;9.63;;;;;;;11.27;58.98;94624.47;5026403;28;20225;-68
2023/04/30 03:08:26;;;;;;;18.13;9.57;;;;;;;11.34;58.60;94618.56;5029339;28;20217;-69
2023/04/30 03:10:52;;;;;;;13.13;8.75;;;;;;;11.41;58.45;94627.44;5032297;28;20280;-69
2023/04/30 03:13:17;;;;;;;12.52;8.63;;;;;;;11.40;58.51;94629.25;5034391;28;20291;-69
2023/04/30 03:15:43;;;;;;;13.90;8.57;;;;;;;11.46;58.20;94627.75;5032547;28;20181;-69
2023/04/30 03:18:09;;;;;;;10.02;8.05;;;;;;;11.48;58.18;94636.31;5039824;28;20253;-69
2023/04/30 03:20:35;;;;;;;13.07;8.25;;;;;;;11.45;58.24;94634.84;5024426;28;20229;-68
2023/04/30 03:23:01;;;;;;;11.13;7.68;;;;;;;11.42;58.11;94629.09;5031674;28;20222;-69
2023/04/30 03:25:26;;;;;;;11.88;7.72;;;;;;;11.42;57.94;94635.19;5028710;28;20288;-68
2023/04/30 03:27:51;;;;;;;10.48;7.85;;;;;;;11.38;58.36;94633.03;5031511;28;20194;-68
2023/04/30 03:30:17;;;;;;;8.63;7.38;;;;;;;11.30;58.61;94633.84;5039706;28;20194;-69
2023/04/30 03:32:43;;;;;;;9.30;7.63;;;;;;;11.37;58.22;94639.31;5044840;28;20232;-69
2023/04/30 03:35:08;;;;;;;8.27;7.35;;;;;;;11.41;57.75;94632.69;5029974;28;20313;-69
2023/04/30 03:37:34;;;;;;;10.07;7.55;;;;;;;11.39;57.61;94632.06;5031924;28;20226;-69
2023/04/30 03:39:59;;;;;;;9.85;7.47;;;;;;;11.43;57.57;94636.81;5029439;28;20188;-69
2023/04/30 03:42:25;;;;;;;9.23;7.35;;;;;;;11.52;57.19;94644.69;5029349;28;20214;-69
2023/04/30 03:44:50;;;;;;;7.82;7.03;;;;;;;11.54;56.52;94640.91;5030390;28;20229;-69
2023/04/30 03:47:16;;;;;;;9.65;7.35;;;;;;;11.55;56.81;94652.28;5026681;28;20248;-70
2023/04/30 03:49:41;;;;;;;8.23;7.30;;;;;;;11.44;57.41;94649.00;5033080;28;20222;-69
2023/04/30 03:52:07;;;;;;;7.53;6.70;;;;;;;11.37;57.63;94655.91;5030923;28;20217;-69
2023/04/30 03:54:32;;;;;;;11.02;8.48;;;;;;;11.41;57.86;94653.75;5031243;28;20182;-69
2023/04/30 03:56:59;;;;;;;12.43;9.63;;;;;;;11.51;58.20;94664.94;5022938;28;20715;-69
2023/04/30 03:59:25;;;;;;;12.97;9.17;;;;;;;11.42;58.24;94663.31;5029061;28;20225;-69
2023/04/30 04:01:50;;;;;;;11.63;8.98;;;;;;;11.58;58.44;94663.31;5027100;28;20230;-69
2023/04/30 04:04:16;;;;;;;10.95;8.80;;;;;;;11.60;58.52;94665.75;5036170;28;20226;-69
2023/04/30 04:06:42;;;;;;;10.90;8.88;;;;;;;11.57;58.71;94655.56;5031198;28;20220;-69
2023/04/30 04:09:07;;;;;;;15.32;9.07;;;;;;;11.59;58.73;94657.03;5034957;28;20222;-69
2023/04/30 04:11:33;;;;;;;13.30;9.40;;;;;;;11.53;58.58;94664.78;5032941;28;20298;-69
2023/04/30 04:13:59;;;;;;;14.82;9.27;;;;;;;11.28;59.45;94662.19;5025482;28;20234;-69
2023/04/30 04:16:25;;;;;;;11.45;9.52;;;;;;;11.24;59.77;94666.13;5044386;28;20294;-69
2023/04/30 04:18:51;;;;;;;13.27;10.05;;;;;;;11.37;59.45;94661.19;5038821;28;20237;-69
2023/04/30 04:21:17;;;;;;;14.32;9.85;;;;;;;11.41;59.41;94666.94;5032778;28;20259;-69
2023/04/30 04:23:43;;;;;;;12.50;8.90;;;;;;;11.51;59.05;94661.50;5022981;28;20222;-68
2023/04/30 04:26:09;;;;;;;13.15;9.25;;;;;;;11.59;59.04;94672.84;5034959;28;20229;-68
2023/04/30 04:28:35;;;;;;;13.65;9.30;;;;;;;11.70;58.17;94676.94;5033673;28;20229;-69
2023/04/30 04:31:02;;;;;;;9.90;8.97;;;;;;;11.81;57.90;94679.22;5034041;28;20193;-68
2023/04/30 04:33:27;;;;;;;10.77;9.27;;;;;;;11.61;58.22;94667.41;5019418;28;20216;-68
2023/04/30 04:35:53;;;;;;;10.95;9.13;;;;;;;11.70;58.47;94671.66;5031064;28;20246;-68
2023/04/30 04:38:19;;;;;;;10.27;9.10;;;;;;;11.86;57.77;94668.22;5032688;28;20218;-68
2023/04/30 04:40:55;;;;;;;12.68;8.98;;;;;;;11.93;57.97;94686.81;5020449;28;20301;-67
2023/04/30 04:43:21;;;;;;;10.25;8.98;;;;;;;11.98;57.10;94684.50;5034704;28;20300;-67
2023/04/30 04:45:46;;;;;;;9.80;8.60;;;;;;;11.98;57.37;94681.88;5025933;28;20201;-67
2023/04/30 04:48:13;;;;;;;11.85;8.82;;;;;;;12.05;57.51;94690.72;5022998;28;20250;-70
2023/04/30 04:50:38;;;;;;;11.13;9.10;;;;;;;11.88;58.11;94687.31;5027900;28;20241;-71
2023/04/30 04:53:04;;;;;;;10.18;8.77;;;;;;;11.81;58.61;94692.41;5032050;28;20253;-70
2023/04/30 04:55:30;;;;;;;12.38;9.48;;;;;;;11.82;57.97;94687.97;5030999;28;20224;-70
2023/04/30 04:57:55;;;;;;;9.65;8.63;;;;;;;11.85;57.84;94701.63;5022381;28;20178;-70
2023/04/30 05:00:22;;;;;;;11.80;9.18;;;;;;;11.73;58.33;94691.59;5022032;28;20174;-70
2023/04/30 05:02:48;;;;;;;11.48;9.45;;;;;;;11.93;57.60;94698.19;5029790;28;20275;-67
2023/04/30 05:05:14;;;;;;;11.27;8.70;;;;;;;12.00;57.22;94703.59;5021559;28;20218;-71
2023/04/30 05:07:40;;;;;;;11.52;8.13;;;;;;;11.99;56.97;94699.31;5014561;28;20230;-70
2023/04/30 05:10:06;;;;;;;10.98;8.23;;;;;;;11.96;57.16;94697.84;5025296;28;20205;-71
2023/04/30 05:12:32;;;;;;;12.27;8.75;;;;;;;11.99;56.66;94696.69;5040410;28;20252;-71
2023/04/30 05:14:58;;;;;;;12.15;9.50;;;;;;;12.07;56.64;94702.75;5033319;28;20321;-70
2023/04/30 05:17:23;;;;;;;9.30;8.30;;;;;;;12.13;56.37;94698.63;5023628;28;20213;-70
2023/04/30 05:19:49;;;;;;;10.63;9.52;;;;;;;12.19;56.13;94695.31;5020727;28;20455;-70
2023/04/30 05:22:15;;;;;;;12.35;9.30;;;;;;;12.23;55.93;94699.25;5022641;28;20229;-70
2023/04/30 05:24:41;;;;;;;10.93;9.82;;;;;;;12.28;56.05;94701.38;5030347;28;20189;-70
2023/04/30 05:27:07;;;;;;;9.73;8.73;;;;;;;12.35;56.08;94697.09;5030813;28;20217;-70
2023/04/30 05:29:33;;;;;;;11.18;9.23;;;;;;;12.43;56.34;94693.56;5032151;28;20228;-67
2023/04/30 05:31:58;;;;;;;19.15;9.70;;;;;;;12.29;56.79;94693.28;5025704;28;20271;-68
2023/04/30 05:34:23;;;;;;;12.00;9.27;;;;;;;12.23;56.96;94698.44;5037685;28;20225;-68
2023/04/30 05:36:49;;;;;;;10.35;9.30;;;;;;;12.23;56.81;94687.91;5036577;28;20221;-68
2023/04/30 05:39:15;;;;;;;10.35;9.45;;;;;;;12.22;56.47;94699.44;5023286;28;20248;-68
2023/04/30 05:41:40;;;;;;;14.45;10.48;;;;;;;12.29;56.31;94697.75;5029217;28;20218;-68
2023/04/30 05:44:05;;;;;;;12.57;9.80;;;;;;;12.20;55.80;94704.06;5024394;28;20212;-72
2023/04/30 05:46:31;;;;;;;10.45;9.43;;;;;;;12.02;56.66;94704.25;5030428;28;20233;-72
2023/04/30 05:48:57;;;;;;;11.30;9.50;;;;;;;11.85;57.19;94696.34;5019821;28;20190;-71
2023/04/30 05:51:22;;;;;;;11.52;8.98;;;;;;;11.83;57.41;94686.97;5031857;28;20253;-71
2023/04/30 05:53:48;;;;;;;11.35;9.77;;;;;;;11.98;57.24;94697.69;5024470;28;20213;-71
2023/04/30 05:56:13;;;;;;;12.20;10.07;;;;;;;12.05;57.01;94693.38;5029592;28;20227;-72
2023/04/30 05:58:39;;;;;;;10.20;9.05;;;;;;;12.12;56.85;94694.34;5026926;28;20225;-72
2023/04/30 06:01:05;;;;;;;13.73;9.43;;;;;;;12.30;56.24;94697.59;5029674;28;20182;-71
2023/04/30 06:03:30;;;;;;;11.93;9.27;;;;;;;12.55;55.63;94702.75;5027861;28;20191;-71
2023/04/30 06:05:56;;;;;;;11.63;9.60;;;;;;;12.74;54.81;94704.97;5028866;28;20214;-71
2023/04/30 06:08:21;;;;;;;10.73;9.52;;;;;;;12.91;54.65;94713.66;5022796;28;20218;-68
2023/04/30 06:10:47;;;;;;;10.02;8.93;;;;;;;13.02;54.38;94704.50;5023473;28;20227;-68
2023/04/30 06:13:13;;;;;;;16.02;10.85;;;;;;;13.10;54.39;94708.94;5027783;28;20229;-68
2023/04/30 06:15:40;;;;;;;13.68;11.40;;;;;;;13.21;53.67;94706.69;5036387;28;20185;-68
2023/04/30 06:18:05;;;;;;;14.48;11.65;;;;;;;13.27;54.04;94707.03;5035205;28;20253;-68
2023/04/30 06:20:31;;;;;;;14.70;12.40;;;;;;;13.30;53.47;94720.69;5036186;28;20260;-70
2023/04/30 06:22:57;;;;;;;16.75;12.73;;;;;;;13.41;53.25;94712.34;5026757;28;20323;-70
2023/04/30 06:25:22;;;;;;;16.20;12.73;;;;;;;13.53;52.87;94715.41;5036344;28;20225;-71
2023/04/30 06:27:48;;;;;;;16.48;12.50;;;;;;;13.56;52.94;94717.69;5035675;28;20217;-71
2023/04/30 06:30:13;;;;;;;13.63;11.38;;;;;;;13.67;52.37;94709.34;5032622;28;20255;-68
2023/04/30 06:32:40;;;;;;;14.38;11.30;;;;;;;13.75;52.19;94716.38;5037971;28;20245;-67
2023/04/30 06:35:05;;;;;;;14.32;11.23;;;;;;;13.70;52.07;94717.91;5029961;28;20232;-68
2023/04/30 06:37:36;;;;;;;12.15;10.88;;;;;;;13.76;52.23;94719.84;5025814;28;20226;-69
2023/04/30 06:40:05;;;;;;;14.25;11.73;;;;;;;13.79;52.22;94722.13;5037443;28;20190;-69
2023/04/30 06:42:33;;;;;;;13.40;12.00;;;;;;;13.73;52.19;94722.84;5038687;28;20177;-69
2023/04/30 06:45:02;;;;;;;16.88;11.73;;;;;;;13.73;52.41;94715.72;5036759;28;20217;-69
2023/04/30 06:47:33;;;;;;;13.55;11.18;;;;;;;13.78;52.39;94717.84;5032902;28;20359;-69
2023/04/30 06:49:59;;;;;;;12.68;11.40;;;;;;;13.83;52.47;94720.78;5031617;28;20225;-69
2023/04/30 06:52:25;;;;;;;14.65;11.00;;;;;;;13.89;52.20;94720.06;5026661;28;20233;-70
2023/04/30 06:54:51;;;;;;;13.55;10.55;;;;;;;14.02;51.46;94719.44;5034270;28;20182;-70
2023/04/30 06:57:16;;;;;;;13.13;9.75;;;;;;;14.22;50.90;94728.50;5037155;28;20213;-70
2023/04/30 06:59:43;;;;;;;14.75;9.32;;;;;;;14.32;50.29;94718.44;5026562;28;20218;-70
2023/04/30 07:02:08;;;;;;;11.82;10.27;;;;;;;14.23;50.07;94722.19;5036273;28;20233;-70
2023/04/30 07:04:34;;;;;;;11.80;9.38;;;;;;;14.26;50.21;94723.66;5034234;28;20218;-70
2023/04/30 07:07:01;;;;;;;12.48;9.38;;;;;;;14.43;49.74;94719.81;5035551;28;20193;-70
2023/04/30 07:09:27;;;;;;;10.10;9.05;;;;;;;14.55;49.64;94722.88;5033636;28;20201;-71
2023/04/30 07:11:53;;;;;;;12.30;8.95;;;;;;;14.63;49.49;94727.25;5033335;28;20210;-70
2023/04/30 07:14:18;;;;;;;11.02;9.15;;;;;;;14.53;49.07;94724.88;5040246;28;20221;-70
2023/04/30 07:16:44;;;;;;;9.52;8.27;;;;;;;14.65;48.92;94733.16;5034655;28;20221;-70
2023/04/30 07:19:09;;;;;;;12.15;8.18;;;;;;;14.68;48.65;94725.69;5045475;28;20225;-70
2023/04/30 07:21:35;;;;;;;10.73;8.13;;;;;;;14.72;49.02;94734.91;5033664;28;20177;-68
2023/04/30 07:24:00;;;;;;;9.55;8.63;;;;;;;14.88;48.80;94727.75;5036390;28;20308;-68
2023/04/30 07:26:26;;;;;;;10.95;8.45;;;;;;;14.78;47.86;94720.94;5041638;28;20218;-68
2023/04/30 07:28:51;;;;;;;12.35;8.23;;;;;;;14.71;48.65;94732.44;5044740;28;20259;-68
2023/04/30 07:31:18;;;;;;;11.93;8.43;;;;;;;14.74;48.49;94729.44;5029660;28;20230;-69
2023/04/30 07:33:44;;;;;;;11.90;9.05;;;;;;;14.86;47.84;94727.13;5026606;28;20242;-69
2023/04/30 07:36:10;;;;;;;10.00;8.57;;;;;;;14.92;47.40;94723.75;5028005;28;20297;-68
2023/04/30 07:38:35;;;;;;;10.15;8.35;;;;;;;14.79;48.15;94729.69;5033314;28;20222;-67
2023/04/30 07:41:01;;;;;;;11.90;8.15;;;;;;;14.85;49.09;94728.97;5033848;28;20331;-67
2023/04/30 07:43:28;;;;;;;9.90;8.75;;;;;;;14.90;47.99;94729.22;5033509;28;20213;-68
2023/04/30 07:45:53;;;;;;;10.35;8.48;;;;;;;14.74;48.52;94732.09;5046272;28;20189;-68
2023/04/30 07:48:20;;;;;;;9.93;8.50;;;;;;;14.63;49.38;94735.19;5030162;28;20197;-68
2023/04/30 07:50:48;;;;;;;13.20;8.80;;;;;;;14.78;48.57;94731.53;5043017;28;20218;-67
2023/04/30 07:53:14;;;;;;;11.70;8.63;;;;;;;14.65;49.26;94743.75;5031468;28;20291;-68
2023/04/30 07:55:40;;;;;;;9.98;8.13;;;;;;;14.79;48.15;94737.66;5034520;28;20685;-70
2023/04/30 07:58:05;;;;;;;8.50;7.60;;;;;;;14.85;47.82;94738.72;5032295;28;20185;-70
2023/04/30 08:00:31;;;;;;;11.45;8.48;;;;;;;14.96;47.26;94736.41;5026611;28;20744;-71
2023/04/30 08:02:57;;;;;;;12.15;7.70;;;;;;;15.13;47.13;94730.91;5023202;28;20245;-72
2023/04/30 08:05:23;;;;;;;8.48;7.30;;;;;;;15.34;46.54;94730.09;5028995;28;20251;-71
2023/04/30 08:07:48;;;;;;;9.55;7.10;;;;;;;15.39;46.55;94728.53;5031554;28;20237;-71
2023/04/30 08:10:14;;;;;;;8.70;6.28;;;;;;;15.47;45.67;94729.44;5032708;28;20233;-71
2023/04/30 08:12:39;;;;;;;7.60;6.40;;;;;;;15.51;45.70;94734.16;5028617;28;20192;-71
2023/04/30 08:15:06;;;;;;;8.15;6.03;;;;;;;15.49;45.11;94735.38;5032169;28;20214;-71
2023/04/30 08:17:32;;;;;;;8.88;6.53;;;;;;;15.58;45.23;94735.06;5032591;28;20229;-69
2023/04/30 08:19:58;;;;;;;6.72;5.40;;;;;;;15.68;44.93;94733.91;5034923;28;20249;-69
2023/04/30 08:22:24;;;;;;;8.73;5.78;;;;;;;15.63;45.29;94737.13;5037832;28;20304;-69
2023/04/30 08:24:50;;;;;;;8.52;5.05;;;;;;;15.67;45.54;94735.75;5026309;28;20202;-71
2023/04/30 08:27:16;;;;;;;9.57;4.85;;;;;;;15.81;44.56;94734.06;5030317;28;20182;-72
2023/04/30 08:29:41;;;;;;;6.55;4.40;;;;;;;15.81;44.81;94724.28;5034113;28;20228;-69
2023/04/30 08:32:08;;;;;;;4.60;4.18;;;;;;;15.98;44.83;94739.91;5027865;28;20220;-68
2023/04/30 08:34:33;;;;;;;7.25;4.40;;;;;;;15.93;43.70;94735.19;5029450;28;20223;-68
2023/04/30 08:37:00;;;;;;;5.03;4.35;;;;;;;15.96;43.94;94736.63;5035127;28;20256;-68
2023/04/30 08:39:25;;;;;;;4.25;3.78;;;;;;;15.98;43.70;94727.47;5035017;28;20360;-68
2023/04/30 08:41:54;;;;;;;7.00;4.25;;;;;;;16.04;43.92;94731.22;5028683;28;20276;-68
2023/04/30 08:44:21;;;;;;;5.68;4.40;;;;;;;16.21;43.61;94729.06;5031643;28;20293;-70
2023/04/30 08:46:52;;;;;;;6.22;4.43;;;;;;;16.30;43.48;94722.59;5040268;28;20210;-70
2023/04/30 08:49:18;;;;;;;5.60;4.15;;;;;;;16.24;43.28;94726.84;5032634;28;20257;-70
2023/04/30 08:51:45;;;;;;;5.93;4.13;;;;;;;16.24;43.20;94724.19;5033591;28;20205;-70
2023/04/30 08:54:12;;;;;;;6.57;4.72;;;;;;;16.40;43.11;94722.25;5047927;28;20355;-70
2023/04/30 08:56:38;;;;;;;7.10;4.20;;;;;;;16.42;43.10;94721.06;5035186;28;20225;-70
2023/04/30 08:59:03;;;;;;;6.30;4.00;;;;;;;16.51;42.25;94722.53;5041778;28;20260;-70
2023/04/30 09:01:29;;;;;;;4.57;3.35;;;;;;;16.45;42.75;94712.69;5022237;28;20226;-70
2023/04/30 09:03:55;;;;;;;5.25;3.65;;;;;;;16.48;42.03;94711.50;5025882;28;20189;-70
2023/04/30 09:06:21;;;;;;;6.47;3.60;;;;;;;16.53;42.22;94704.56;5042514;28;20192;-70
2023/04/30 09:08:49;;;;;;;3.88;3.20;;;;;;;16.41;41.83;94708.81;5020467;28;20222;-70
2023/04/30 09:11:27;;;;;;;4.13;3.05;;;;;;;16.34;41.81;94701.81;5041506;28;20332;-70
2023/04/30 09:13:56;;;;;;;7.53;3.58;;;;;;;16.36;42.57;94697.97;5020975;28;20214;-70
2023/04/30 09:16:22;;;;;;;3.70;3.13;;;;;;;16.37;41.76;94696.94;5035976;28;20226;-70
2023/04/30 09:18:48;;;;;;;3.80;3.20;;;;;;;16.44;40.86;94692.50;5035282;28;20185;-71
2023/04/30 09:21:13;;;;;;;4.13;3.35;;;;;;;16.50;40.52;94690.88;5020030;28;20218;-70
2023/04/30 09:24:00;;;;;;;3.72;3.38;;;;;;;16.59;40.45;94680.91;5022636;28;20244;-70
2023/04/30 09:26:31;;;;;;;3.80;3.42;;;;;;;16.73;40.28;94686.09;5027178;28;20246;-70
2023/04/30 09:28:58;;;;;;;4.00;3.60;;;;;;;16.81;40.84;94681.66;5022056;28;20225;-69
2023/04/30 09:31:25;;;;;;;4.80;4.00;;;;;;;16.82;40.05;94683.31;5027820;28;20221;-70
2023/04/30 09:33:51;;;;;;;4.65;3.70;;;;;;;16.80;39.94;94677.38;5033121;28;20236;-69
2023/04/30 09:36:17;;;;;;;4.60;3.65;;;;;;;16.78;40.33;94679.41;5043555;28;20253;-70
2023/04/30 09:38:43;;;;;;;5.80;3.80;;;;;;;16.88;40.62;94677.19;5030914;28;20213;-70
2023/04/30 09:41:29;;;;;;;3.95;3.65;;;;;;;17.00;39.81;94670.31;5028704;28;20278;-70
2023/04/30 09:43:55;;;;;;;4.70;3.17;;;;;;;17.14;39.57;94661.34;5028287;28;20287;-70
2023/04/30 09:46:29;;;;;;;3.67;3.30;;;;;;;17.24;39.33;94662.78;5045822;28;20226;-69
2023/04/30 09:48:59;;;;;;;3.95;3.00;;;;;;;17.48;38.88;94651.59;5028960;28;20181;-69
2023/04/30 09:51:25;;;;;;;4.63;3.40;;;;;;;17.75;38.23;94668.38;5024992;28;20236;-70
2023/04/30 09:53:51;;;;;;;3.72;3.38;;;;;;;17.80;38.38;94660.63;5022530;28;20241;-70
2023/04/30 09:56:22;;;;;;;3.00;2.80;;;;;;;17.92;37.39;94647.53;5025543;28;20228;-70
2023/04/30 09:58:52;;;;;;;3.47;3.17;;;;;;;18.14;37.54;94652.59;5024561;28;20241;-70
2023/04/30 10:01:20;;;;;;;6.50;3.47;;;;;;;18.19;37.62;94655.47;5028146;28;20289;-70
2023/04/30 10:03:47;;;;;;;3.97;3.38;;;;;;;18.04;37.54;94653.88;5028651;28;20181;-70
2023/04/30 10:06:14;;;;;;;4.45;3.08;;;;;;;18.23;36.91;94638.88;5028988;28;20218;-70
2023/04/30 10:08:42;;;;;;;3.33;3.03;;;;;;;18.34;37.30;94642.75;5016648;28;20240;-70
2023/04/30 10:11:15;;;;;;;3.53;2.85;;;;;;;18.68;36.02;94635.44;5031998;28;20344;-70
2023/04/30 10:13:43;;;;;;;3.40;2.88;;;;;;;19.26;35.06;94637.25;5031303;28;20222;-70
2023/04/30 10:16:31;;;;;;;3.25;2.42;;;;;;;19.34;34.99;94643.13;5025735;28;20981;-70
2023/04/30 10:19:01;;;;;;;3.00;2.80;;;;;;;19.41;33.68;94627.09;5041449;28;20185;-70
2023/04/30 10:21:27;;;;;;;4.05;2.83;;;;;;;19.43;33.29;94625.03;5009353;28;20189;-70
2023/04/30 10:23:54;;;;;;;4.38;2.47;;;;;;;19.02;34.19;94646.81;5032515;28;20217;-71
2023/04/30 10:26:19;;;;;;;3.15;2.80;;;;;;;18.59;35.37;94631.41;5026001;28;20311;-70
2023/04/30 10:28:47;;;;;;;3.83;2.97;;;;;;;18.47;36.06;94656.03;5032027;28;20222;-70
2023/04/30 10:31:13;;;;;;;4.47;3.15;;;;;;;18.12;36.67;94644.00;5024132;28;20643;-70
2023/04/30 10:34:16;;;;;;;6.97;3.08;;;;;;;17.34;39.88;94674.66;5024572;28;20229;-70
2023/04/30 10:36:47;;;;;;;3.90;3.22;;;;;;;17.03;42.41;94669.09;5026191;28;20225;-70
2023/04/30 10:39:16;;;;;;;7.28;3.80;;;;;;;17.00;44.77;94678.28;5031424;28;20276;-70
2023/04/30 10:41:45;;;;;;;4.40;3.70;;;;;;;16.75;47.64;94694.66;5022397;28;20218;-70
2023/04/30 10:44:11;;;;;;;4.18;3.80;;;;;;;16.54;48.58;94713.34;5032375;28;20231;-70
2023/04/30 10:46:37;;;;;;;5.15;4.60;;;;;;;16.16;52.65;94707.63;5033138;28;20221;-70
2023/04/30 10:49:03;;;;;;;8.45;5.25;;;;;;;16.26;54.41;94700.13;5032512;28;20181;-73
2023/04/30 10:51:53;;;;;;;6.68;6.03;;;;;;;16.48;57.03;94683.09;5022653;28;20593;-71
2023/04/30 10:54:24;;;;;;;5.95;5.32;;;;;;;16.88;53.06;94691.28;5026740;28;20213;-71
2023/04/30 10:56:50;;;;;;;5.07;4.57;;;;;;;17.06;53.63;94688.09;5021015;28;20217;-71
2023/04/30 10:59:16;;;;;;;6.72;5.20;;;;;;;17.58;53.72;94683.06;5034133;28;20222;-71
2023/04/30 11:01:56;;;;;;;5.25;4.70;;;;;;;18.00;52.45;94679.22;5028520;28;20222;-71
2023/04/30 11:04:22;;;;;;;3.38;3.15;;;;;;;18.18;47.18;94669.81;5027439;28;20232;-70
2023/04/30 11:07:08;;;;;;;3.78;3.47;;;;;;;18.21;47.85;94672.06;5035114;28;20186;-71
2023/04/30 11:09:37;;;;;;;4.10;3.70;;;;;;;18.44;49.80;94675.09;5026802;28;20225;-70
2023/04/30 11:12:04;;;;;;;6.03;3.50;;;;;;;18.37;47.96;94666.28;5023278;28;20221;-71
2023/04/30 11:14:33;;;;;;;4.03;3.60;;;;;;;18.51;47.47;94672.38;5045360;28;20305;-71
2023/04/30 11:17:00;;;;;;;3.92;3.63;;;;;;;18.72;48.44;94669.44;5035160;28;20363;-71
2023/04/30 11:19:27;;;;;;;4.45;3.42;;;;;;;19.02;47.09;94673.47;5023394;28;20637;-70
2023/04/30 11:22:02;;;;;;;3.20;3.00;;;;;;;19.27;42.64;94665.53;5033135;28;20272;-70
2023/04/30 11:25:12;;;;;;;3.15;2.85;;;;;;;18.89;40.96;94659.16;5042695;28;20182;-70
2023/04/30 11:27:43;;;;;;;3.40;2.42;;;;;;;19.05;41.38;94647.19;4974026;28;20259;-71
2023/04/30 11:30:10;;;;;;;4.55;2.88;;;;;;;19.52;44.05;94657.59;4974595;28;20245;-70